createdAt,value
2022-12-03T00:01:48.418Z,6.98
2022-12-03T00:04:16.734Z,6.98
2022-12-03T00:06:45.737Z,6.96
2022-12-03T00:09:14.267Z,6.96
2022-12-03T00:11:42.538Z,6.98
2022-12-03T00:14:11.635Z,7.02
2022-12-03T00:16:41.364Z,7.04
2022-12-03T00:19:09.595Z,7.10
2022-12-03T00:21:38.873Z,7.14
2022-12-03T00:24:07.862Z,7.13
2022-12-03T00:26:36.095Z,7.18
2022-12-03T00:29:05.557Z,7.17
2022-12-03T00:31:33.816Z,7.23
2022-12-03T00:34:03.646Z,7.25
2022-12-03T00:36:32.052Z,7.23
2022-12-03T00:39:00.346Z,7.25
2022-12-03T00:41:28.680Z,7.31
2022-12-03T00:43:57.876Z,7.31
2022-12-03T00:46:26.283Z,7.35
2022-12-03T00:48:54.685Z,7.39
2022-12-03T00:51:25.060Z,7.44
2022-12-03T00:53:53.308Z,7.49
2022-12-03T00:56:21.602Z,7.54
2022-12-03T00:58:51.559Z,7.59
2022-12-03T01:01:20.063Z,7.61
2022-12-03T01:03:48.390Z,7.63
2022-12-03T01:06:16.620Z,7.62
2022-12-03T01:08:46.241Z,7.62
2022-12-03T01:11:28.334Z,7.54
2022-12-03T01:13:56.604Z,7.44
2022-12-03T01:16:24.991Z,7.33
2022-12-03T01:18:53.895Z,7.27
2022-12-03T01:21:22.182Z,7.21
2022-12-03T01:23:52.125Z,7.13
2022-12-03T01:26:20.405Z,7.09
2022-12-03T01:28:49.278Z,7.06
2022-12-03T01:31:35.182Z,7.07
2022-12-03T01:34:03.477Z,7.13
2022-12-03T01:36:34.342Z,7.20
2022-12-03T01:39:05.724Z,7.25
2022-12-03T01:41:35.412Z,7.29
2022-12-03T01:44:05.816Z,7.40
2022-12-03T01:46:40.358Z,7.46
2022-12-03T01:49:15.872Z,7.53
2022-12-03T01:51:44.453Z,7.59
2022-12-03T01:54:19.379Z,7.61
2022-12-03T01:56:49.344Z,7.60
2022-12-03T01:59:18.448Z,7.65
2022-12-03T02:01:47.464Z,7.67
2022-12-03T02:04:18.371Z,7.61
2022-12-03T02:06:46.773Z,7.64
2022-12-03T02:09:16.655Z,7.65
2022-12-03T02:11:48.151Z,7.64
2022-12-03T02:14:21.737Z,7.62
2022-12-03T02:16:50.354Z,7.62
2022-12-03T02:19:25.526Z,7.59
2022-12-03T02:22:02.016Z,7.56
2022-12-03T02:24:43.637Z,7.55
2022-12-03T02:27:13.797Z,7.61
2022-12-03T02:29:42.211Z,7.62
2022-12-03T02:32:10.736Z,7.57
2022-12-03T02:34:41.144Z,7.59
2022-12-03T02:37:13.082Z,7.58
2022-12-03T02:39:45.432Z,7.61
2022-12-03T02:42:33.075Z,7.69
2022-12-03T02:45:05.461Z,7.73
2022-12-03T02:47:36.064Z,7.70
2022-12-03T02:50:05.966Z,7.66
2022-12-03T02:52:34.298Z,7.67
2022-12-03T02:55:04.048Z,7.67
2022-12-03T02:57:34.051Z,7.70
2022-12-03T03:00:02.562Z,7.70
2022-12-03T03:02:30.865Z,7.67
2022-12-03T03:04:59.889Z,7.62
2022-12-03T03:07:28.236Z,7.55
2022-12-03T03:09:57.460Z,7.47
2022-12-03T03:12:25.762Z,7.45
2022-12-03T03:14:56.294Z,7.41
2022-12-03T03:17:25.493Z,7.37
2022-12-03T03:19:53.867Z,7.40
2022-12-03T03:22:22.095Z,7.43
2022-12-03T03:24:50.581Z,7.51
2022-12-03T03:27:19.240Z,7.55
2022-12-03T03:29:47.610Z,7.56
2022-12-03T03:32:17.440Z,7.61
2022-12-03T03:34:45.813Z,7.58
2022-12-03T03:37:14.024Z,7.55
2022-12-03T03:39:42.313Z,7.53
2022-12-03T03:42:10.754Z,7.53
2022-12-03T03:44:39.212Z,7.39
2022-12-03T03:47:07.940Z,7.26
2022-12-03T03:49:38.081Z,7.13
2022-12-03T03:52:06.733Z,7.14
2022-12-03T03:54:35.149Z,7.16
2022-12-03T03:57:03.521Z,7.14
2022-12-03T03:59:31.870Z,7.09
2022-12-03T04:02:00.172Z,7.09
2022-12-03T04:04:32.794Z,7.07
2022-12-03T04:07:02.624Z,7.05
2022-12-03T04:09:30.908Z,7.04
2022-12-03T04:12:16.640Z,7.05
2022-12-03T04:14:44.861Z,7.01
2022-12-03T04:17:13.072Z,6.98
2022-12-03T04:19:41.371Z,6.96
2022-12-03T04:22:27.442Z,7.02
2022-12-03T04:25:16.386Z,7.04
2022-12-03T04:28:02.336Z,7.03
2022-12-03T04:30:30.829Z,7.08
2022-12-03T04:33:16.917Z,7.14
2022-12-03T04:35:45.541Z,7.18
2022-12-03T04:38:17.067Z,7.20
2022-12-03T04:41:01.710Z,7.26
2022-12-03T04:43:30.470Z,7.33
2022-12-03T04:45:58.928Z,7.31
2022-12-03T04:48:27.785Z,7.26
2022-12-03T04:50:55.959Z,7.28
2022-12-03T04:53:25.612Z,7.29
2022-12-03T04:55:53.854Z,7.27
2022-12-03T04:58:22.934Z,7.33
2022-12-03T05:00:51.449Z,7.33
2022-12-03T05:03:19.723Z,7.25
2022-12-03T05:05:48.132Z,7.20
2022-12-03T05:08:16.431Z,7.12
2022-12-03T05:10:46.394Z,7.05
2022-12-03T05:13:14.878Z,6.99
2022-12-03T05:15:43.104Z,6.95
2022-12-03T05:18:11.407Z,6.90
2022-12-03T05:20:52.760Z,6.96
2022-12-03T05:23:22.138Z,7.00
2022-12-03T05:25:51.781Z,7.06
2022-12-03T05:28:22.240Z,7.04
2022-12-03T05:30:51.081Z,7.01
2022-12-03T05:33:20.588Z,7.02
2022-12-03T05:35:49.229Z,7.00
2022-12-03T05:38:17.723Z,7.03
2022-12-03T05:40:46.183Z,7.10
2022-12-03T05:43:15.057Z,7.14
2022-12-03T05:45:44.811Z,7.08
2022-12-03T05:48:15.558Z,6.97
2022-12-03T05:50:45.620Z,6.83
2022-12-03T05:53:18.220Z,6.75
2022-12-03T05:55:47.059Z,6.72
2022-12-03T05:58:16.961Z,6.66
2022-12-03T06:00:45.449Z,6.65
2022-12-03T06:03:13.747Z,6.66
2022-12-03T06:05:42.381Z,6.64
2022-12-03T06:08:10.691Z,6.66
2022-12-03T06:10:39.188Z,6.62
2022-12-03T06:13:07.422Z,6.60
2022-12-03T06:15:43.330Z,6.56
2022-12-03T06:18:12.151Z,6.54
2022-12-03T06:20:40.437Z,6.49
2022-12-03T06:23:08.725Z,6.44
2022-12-03T06:25:36.950Z,6.42
2022-12-03T06:28:07.520Z,6.40
2022-12-03T06:30:37.189Z,6.35
2022-12-03T06:33:05.485Z,6.31
2022-12-03T06:35:33.705Z,6.27
2022-12-03T06:38:02.036Z,6.21
2022-12-03T06:40:30.257Z,6.20
2022-12-03T06:42:58.576Z,6.15
2022-12-03T06:45:26.852Z,6.10
2022-12-03T06:47:56.692Z,6.04
2022-12-03T06:50:25.232Z,5.98
2022-12-03T06:52:53.559Z,5.98
2022-12-03T06:55:23.105Z,5.94
2022-12-03T06:57:51.702Z,5.88
2022-12-03T07:00:20.999Z,5.87
2022-12-03T07:02:49.536Z,5.87
2022-12-03T07:05:20.089Z,5.85
2022-12-03T07:07:52.075Z,5.83
2022-12-03T07:10:20.985Z,5.83
2022-12-03T07:12:49.257Z,5.81
2022-12-03T07:15:18.021Z,5.78
2022-12-03T07:17:46.342Z,5.76
2022-12-03T07:20:18.325Z,5.72
2022-12-03T07:22:46.885Z,5.71
2022-12-03T07:25:19.657Z,5.69
2022-12-03T07:27:51.344Z,5.65
2022-12-03T07:30:19.967Z,5.63
2022-12-03T07:32:48.217Z,5.64
2022-12-03T07:35:16.640Z,5.66
2022-12-03T07:37:46.805Z,5.63
2022-12-03T07:40:15.592Z,5.62
2022-12-03T07:42:44.141Z,5.58
2022-12-03T07:45:12.783Z,5.62
2022-12-03T07:47:41.250Z,5.63
2022-12-03T07:50:11.250Z,5.67
2022-12-03T07:52:39.867Z,5.71
2022-12-03T07:55:11.814Z,5.74
2022-12-03T07:57:40.494Z,5.72
2022-12-03T08:00:09.646Z,5.74
2022-12-03T08:02:37.930Z,5.77
2022-12-03T08:05:07.409Z,5.81
2022-12-03T08:07:36.278Z,5.87
2022-12-03T08:10:05.349Z,5.92
2022-12-03T08:12:42.951Z,5.97
2022-12-03T08:15:13.709Z,6.07
2022-12-03T08:17:43.497Z,6.19
2022-12-03T08:20:17.072Z,6.33
2022-12-03T08:22:47.747Z,6.49
2022-12-03T08:25:21.768Z,6.61
2022-12-03T08:27:52.751Z,6.72
2022-12-03T08:30:21.285Z,6.84
2022-12-03T08:32:50.129Z,6.97
2022-12-03T08:35:23.887Z,7.06
2022-12-03T08:37:58.861Z,7.09
2022-12-03T08:40:35.960Z,7.16
2022-12-03T08:43:18.672Z,7.34
2022-12-03T08:45:47.302Z,7.70
2022-12-03T08:48:33.924Z,8.12
2022-12-03T08:51:07.549Z,8.32
2022-12-03T08:53:37.954Z,8.16
2022-12-03T08:56:20.548Z,7.99
2022-12-03T08:58:52.984Z,8.05
2022-12-03T09:01:31.492Z,8.38
2022-12-03T09:04:16.398Z,8.74
2022-12-03T09:06:45.957Z,9.16
2022-12-03T09:09:14.218Z,9.76
2022-12-03T09:11:43.563Z,10.59
2022-12-03T09:14:18.500Z,11.53
2022-12-03T09:16:48.013Z,12.13
2022-12-03T09:19:16.818Z,12.57
2022-12-03T09:21:45.695Z,12.10
2022-12-03T09:24:14.233Z,11.23
2022-12-03T09:26:42.637Z,10.50
2022-12-03T09:29:12.927Z,9.92
2022-12-03T09:31:41.846Z,9.50
2022-12-03T09:34:12.528Z,9.17
2022-12-03T09:36:42.452Z,8.95
2022-12-03T09:39:11.478Z,8.76
2022-12-03T09:41:40.251Z,8.62
2022-12-03T09:44:15.856Z,8.55
2022-12-03T09:46:49.002Z,8.59
2022-12-03T09:49:19.758Z,8.68
2022-12-03T09:51:49.106Z,8.69
2022-12-03T09:54:25.028Z,8.69
2022-12-03T09:56:54.648Z,8.65
2022-12-03T09:59:25.010Z,8.56
2022-12-03T10:01:56.606Z,8.48
2022-12-03T10:04:25.592Z,8.38
2022-12-03T10:06:53.950Z,8.30
2022-12-03T10:09:27.282Z,8.24
2022-12-03T10:11:56.736Z,8.19
2022-12-03T10:14:25.333Z,8.15
2022-12-03T10:16:56.653Z,8.14
2022-12-03T10:19:30.443Z,8.16
2022-12-03T10:21:59.688Z,8.17
2022-12-03T10:24:30.135Z,8.24
2022-12-03T10:27:00.909Z,8.28
2022-12-03T10:29:33.997Z,8.29
2022-12-03T10:32:06.255Z,8.29
2022-12-03T10:34:37.863Z,8.32
2022-12-03T10:37:17.760Z,8.38
2022-12-03T10:40:00.675Z,8.38
2022-12-03T10:42:31.049Z,8.34
2022-12-03T10:45:13.451Z,8.38
2022-12-03T10:47:43.937Z,8.35
2022-12-03T10:50:21.443Z,8.39
2022-12-03T10:55:45.871Z,8.53
2022-12-03T10:58:23.165Z,8.60
2022-12-03T11:01:07.438Z,8.62
2022-12-03T11:03:38.068Z,8.62
2022-12-03T11:06:06.726Z,8.65
2022-12-03T11:08:37.797Z,8.61
2022-12-03T11:11:08.861Z,8.57
2022-12-03T11:13:52.582Z,8.61
2022-12-03T11:17:10.042Z,8.49
2022-12-03T11:19:53.046Z,8.36
2022-12-03T11:22:46.790Z,8.22
2022-12-03T11:25:50.402Z,8.04
2022-12-03T11:28:37.228Z,8.07
2022-12-03T11:31:12.445Z,7.96
2022-12-03T11:33:41.648Z,8.01
2022-12-03T11:36:36.408Z,7.95
2022-12-03T11:39:10.055Z,7.76
2022-12-03T11:41:38.239Z,7.86
2022-12-03T11:44:30.424Z,7.79
2022-12-03T11:47:00.810Z,7.77
2022-12-03T11:49:38.947Z,7.80
2022-12-03T11:52:25.164Z,7.78
2022-12-03T11:54:57.753Z,7.71
2022-12-03T11:57:36.655Z,7.57
2022-12-03T12:00:21.622Z,7.60
2022-12-03T12:02:51.250Z,7.60
2022-12-03T12:05:28.787Z,7.74
2022-12-03T12:07:59.444Z,7.83
2022-12-03T12:10:43.039Z,7.95
2022-12-03T12:13:52.348Z,7.93
2022-12-03T12:16:55.248Z,7.80
2022-12-03T12:19:37.665Z,7.97
2022-12-03T12:22:31.381Z,8.03
2022-12-03T12:25:02.027Z,7.99
2022-12-03T12:27:36.011Z,7.98
2022-12-03T12:30:09.839Z,7.99
2022-12-03T12:32:46.011Z,8.11
2022-12-03T12:35:18.528Z,8.03
2022-12-03T12:37:56.636Z,8.04
2022-12-03T12:40:31.120Z,8.07
2022-12-03T12:43:05.332Z,7.88
2022-12-03T12:45:37.238Z,7.72
2022-12-03T12:48:16.762Z,7.68
2022-12-03T12:50:46.512Z,7.66
2022-12-03T12:53:21.648Z,7.65
2022-12-03T12:55:56.532Z,7.56
2022-12-03T12:58:25.246Z,7.51
2022-12-03T13:00:55.321Z,7.51
2022-12-03T13:03:26.151Z,7.45
2022-12-03T13:05:55.458Z,7.58
2022-12-03T13:08:27.411Z,7.51
2022-12-03T13:10:58.962Z,7.43
2022-12-03T13:13:44.028Z,7.46
2022-12-03T13:16:19.035Z,7.41
2022-12-03T13:18:49.321Z,7.49
2022-12-03T13:21:39.257Z,7.42
2022-12-03T13:24:28.222Z,7.43
2022-12-03T13:26:58.367Z,7.38
2022-12-03T13:29:28.364Z,7.45
2022-12-03T13:31:59.979Z,7.45
2022-12-03T13:34:29.999Z,7.39
2022-12-03T13:36:58.898Z,7.41
2022-12-03T13:39:33.475Z,7.42
2022-12-03T13:42:38.063Z,7.25
2022-12-03T13:45:31.978Z,7.28
2022-12-03T13:48:02.183Z,7.31
2022-12-03T13:50:35.602Z,7.34
2022-12-03T13:53:08.547Z,7.22
2022-12-03T13:55:39.828Z,7.19
2022-12-03T13:58:09.976Z,7.09
2022-12-03T14:00:38.509Z,7.15
2022-12-03T14:03:08.420Z,7.13
2022-12-03T14:05:36.856Z,7.11
2022-12-03T14:08:06.270Z,6.97
2022-12-03T14:10:35.124Z,6.98
2022-12-03T14:13:03.370Z,7.01
2022-12-03T14:15:33.367Z,6.99
2022-12-03T14:18:02.427Z,6.87
2022-12-03T14:20:30.676Z,6.84
2022-12-03T14:22:59.655Z,7.02
2022-12-03T14:25:28.117Z,6.92
2022-12-03T14:27:56.462Z,6.95
2022-12-03T14:30:24.980Z,7.05
2022-12-03T14:32:55.432Z,7.00
2022-12-03T14:35:23.795Z,6.93
2022-12-03T14:37:52.018Z,6.94
2022-12-03T14:40:22.002Z,6.84
2022-12-03T14:42:50.581Z,6.92
2022-12-03T14:45:20.409Z,6.86
2022-12-03T14:47:49.228Z,6.88
2022-12-03T14:50:19.043Z,6.94
2022-12-03T14:52:47.301Z,6.98
2022-12-03T14:55:15.622Z,6.96
2022-12-03T14:57:43.955Z,6.97
2022-12-03T15:00:13.488Z,6.94
2022-12-03T15:02:42.221Z,6.82
2022-12-03T15:05:11.132Z,6.80
2022-12-03T15:07:40.903Z,6.83
2022-12-03T15:10:10.011Z,6.79
2022-12-03T15:12:38.349Z,6.78
2022-12-03T15:15:07.545Z,6.79
2022-12-03T15:17:35.969Z,6.83
2022-12-03T15:20:04.963Z,6.74
2022-12-03T15:22:33.360Z,6.67
2022-12-03T15:25:03.613Z,6.64
2022-12-03T15:27:31.925Z,6.69
2022-12-03T15:30:00.310Z,6.68
2022-12-03T15:32:28.662Z,6.56
2022-12-03T15:34:57.229Z,6.55
2022-12-03T15:37:27.717Z,6.55
2022-12-03T15:39:56.416Z,6.61
2022-12-03T15:42:28.191Z,6.57
2022-12-03T15:44:57.737Z,6.59
2022-12-03T15:47:26.384Z,6.55
2022-12-03T15:49:54.854Z,6.58
2022-12-03T15:52:23.574Z,6.63
2022-12-03T15:54:52.139Z,6.66
2022-12-03T15:57:20.937Z,6.66
2022-12-03T15:59:51.063Z,6.67
2022-12-03T16:02:19.615Z,6.72
2022-12-03T16:04:48.385Z,6.71
2022-12-03T16:07:16.940Z,6.79
2022-12-03T16:09:45.277Z,6.80
2022-12-03T16:12:13.543Z,6.82
2022-12-03T16:14:41.795Z,6.83
2022-12-03T16:17:11.549Z,6.84
2022-12-03T16:19:39.793Z,6.75
2022-12-03T16:22:08.122Z,6.78
2022-12-03T16:24:36.507Z,6.85
2022-12-03T16:27:05.070Z,6.82
2022-12-03T16:29:33.367Z,6.88
2022-12-03T16:32:01.774Z,6.78
2022-12-03T16:34:31.475Z,6.82
2022-12-03T16:37:00.160Z,6.85
2022-12-03T16:39:28.541Z,6.89
2022-12-03T16:41:56.822Z,6.75
2022-12-03T16:44:32.843Z,6.76
2022-12-03T16:47:01.641Z,6.81
2022-12-03T16:49:31.357Z,6.86
2022-12-03T16:51:59.668Z,6.85
2022-12-03T16:54:28.147Z,6.80
2022-12-03T16:56:56.487Z,6.74
2022-12-03T16:59:24.812Z,6.70
2022-12-03T17:01:53.157Z,6.67
2022-12-03T17:04:21.528Z,6.74
2022-12-03T17:06:51.375Z,6.69
2022-12-03T17:09:19.693Z,6.58
2022-12-03T17:11:48.231Z,6.57
2022-12-03T17:14:16.659Z,6.60
2022-12-03T17:16:45.129Z,6.54
2022-12-03T17:19:13.415Z,6.57
2022-12-03T17:21:41.774Z,6.55
2022-12-03T17:24:12.760Z,6.49
2022-12-03T17:26:42.201Z,6.52
2022-12-03T17:29:10.531Z,6.48
2022-12-03T17:31:42.152Z,6.53
2022-12-03T17:34:10.996Z,6.52
2022-12-03T17:36:39.407Z,6.54
2022-12-03T17:39:07.720Z,6.58
2022-12-03T17:41:37.508Z,6.60
2022-12-03T17:44:10.160Z,6.58
2022-12-03T17:46:39.809Z,6.63
2022-12-03T17:49:08.232Z,6.62
2022-12-03T17:51:36.519Z,6.60
2022-12-03T17:54:04.997Z,6.61
2022-12-03T17:56:33.846Z,6.51
2022-12-03T17:59:03.515Z,6.57
2022-12-03T18:01:32.359Z,6.54
2022-12-03T18:04:00.767Z,6.60
2022-12-03T18:06:29.170Z,6.64
2022-12-03T18:08:57.587Z,6.56
2022-12-03T18:11:26.463Z,6.52
2022-12-03T18:13:56.017Z,6.51
2022-12-03T18:16:26.121Z,6.52
2022-12-03T18:18:57.080Z,6.54
2022-12-03T18:21:28.316Z,6.45
2022-12-03T18:23:56.902Z,6.31
2022-12-03T18:26:26.051Z,6.36
2022-12-03T18:28:54.664Z,6.39
2022-12-03T18:31:23.782Z,6.37
2022-12-03T18:33:53.851Z,6.39
2022-12-03T18:36:24.673Z,6.46
2022-12-03T18:38:55.523Z,6.44
2022-12-03T18:41:25.333Z,6.40
2022-12-03T18:43:53.674Z,6.34
2022-12-03T18:46:51.950Z,6.29
2022-12-03T18:49:12.791Z,6.33
2022-12-03T18:51:41.136Z,6.31
2022-12-03T18:54:13.538Z,6.27
2022-12-03T18:56:43.085Z,6.23
2022-12-03T18:59:12.357Z,6.13
2022-12-03T19:01:40.751Z,6.11
2022-12-03T19:04:12.298Z,6.03
2022-12-03T19:06:40.837Z,6.01
2022-12-03T19:09:09.211Z,6.02
2022-12-03T19:11:37.509Z,6.02
2022-12-03T19:14:05.770Z,5.94
2022-12-03T19:16:37.101Z,5.98
2022-12-03T19:19:05.456Z,6.05
2022-12-03T19:21:35.192Z,6.14
2022-12-03T19:24:23.663Z,6.19
2022-12-03T19:26:55.728Z,6.22
2022-12-03T19:29:24.357Z,6.16
2022-12-03T19:31:53.419Z,6.17
2022-12-03T19:34:21.845Z,6.14
2022-12-03T19:36:51.558Z,6.07
2022-12-03T19:39:19.988Z,6.02
2022-12-03T19:41:48.340Z,5.99
2022-12-03T19:44:18.138Z,6.07
2022-12-03T19:46:46.778Z,6.01
2022-12-03T19:49:17.651Z,5.92
2022-12-03T19:51:46.059Z,5.96
2022-12-03T19:54:16.531Z,5.88
2022-12-03T19:56:45.689Z,5.82
2022-12-03T19:59:14.911Z,5.67
2022-12-03T20:01:43.661Z,5.59
2022-12-03T20:04:12.980Z,5.50
2022-12-03T20:06:41.423Z,5.57
2022-12-03T20:09:12.434Z,5.51
2022-12-03T20:11:44.637Z,5.51
2022-12-03T20:14:15.894Z,5.43
2022-12-03T20:16:44.417Z,5.42
2022-12-03T20:19:18.258Z,5.38
2022-12-03T20:21:46.991Z,5.33
2022-12-03T20:24:17.392Z,5.22
2022-12-03T20:26:47.313Z,5.15
2022-12-03T20:29:15.658Z,5.04
2022-12-03T20:31:44.051Z,4.99
2022-12-03T20:34:12.888Z,4.93
2022-12-03T20:36:41.163Z,4.87
2022-12-03T20:39:09.639Z,4.83
2022-12-03T20:41:39.016Z,4.81
2022-12-03T20:44:10.565Z,4.78
2022-12-03T20:46:39.042Z,4.73
2022-12-03T20:49:07.407Z,4.68
2022-12-03T20:51:36.571Z,4.68
2022-12-03T20:54:05.375Z,4.69
2022-12-03T20:56:35.773Z,4.63
2022-12-03T20:59:06.175Z,4.59
2022-12-03T21:01:36.574Z,4.56
2022-12-03T21:04:06.868Z,4.57
2022-12-03T21:06:37.036Z,4.49
2022-12-03T21:09:06.948Z,4.50
2022-12-03T21:11:36.225Z,4.47
2022-12-03T21:14:05.378Z,4.45
2022-12-03T21:17:07.212Z,4.39
2022-12-03T21:19:27.899Z,4.39
2022-12-03T21:21:56.206Z,4.37
2022-12-03T21:24:24.581Z,4.30
2022-12-03T21:26:53.010Z,4.36
2022-12-03T21:29:21.301Z,4.35
2022-12-03T21:31:51.282Z,4.36
2022-12-03T21:34:19.467Z,4.27
2022-12-03T21:36:47.821Z,4.29
2022-12-03T21:39:16.332Z,4.20
2022-12-03T21:42:33.994Z,4.24
2022-12-03T21:44:33.139Z,4.34
2022-12-03T21:47:09.509Z,4.38
2022-12-03T21:49:41.271Z,4.39
2022-12-03T21:52:09.520Z,4.45
2022-12-03T21:54:37.741Z,4.51
2022-12-03T21:57:05.992Z,4.54
2022-12-03T21:59:34.384Z,4.66
2022-12-03T22:02:04.944Z,4.75
2022-12-03T22:04:33.432Z,4.74
2022-12-03T22:07:01.626Z,4.77
2022-12-03T22:09:29.935Z,4.86
2022-12-03T22:12:00.777Z,4.87
2022-12-03T22:14:29.237Z,4.96
2022-12-03T22:16:57.530Z,5.06
2022-12-03T22:19:27.716Z,5.13
2022-12-03T22:21:55.981Z,5.13
2022-12-03T22:24:24.341Z,5.18
2022-12-03T22:26:55.433Z,5.26
2022-12-03T22:29:23.632Z,5.22
2022-12-03T22:31:51.856Z,5.18
2022-12-03T22:34:20.129Z,5.21
2022-12-03T22:36:49.757Z,5.24
2022-12-03T22:39:17.994Z,5.35
2022-12-03T22:41:46.222Z,5.32
2022-12-03T22:44:14.772Z,5.40
2022-12-03T22:46:43.050Z,5.35
2022-12-03T22:49:13.465Z,5.32
2022-12-03T22:51:41.857Z,5.28
2022-12-03T22:54:13.051Z,5.30
2022-12-03T22:56:41.838Z,5.34
2022-12-03T22:59:10.099Z,5.37
2022-12-03T23:01:40.319Z,5.44
2022-12-03T23:04:09.812Z,5.43
2022-12-03T23:06:38.604Z,5.46
2022-12-03T23:09:08.331Z,5.50
2022-12-03T23:11:38.318Z,5.54
2022-12-03T23:14:06.826Z,5.50
2022-12-03T23:16:35.196Z,5.55
2022-12-03T23:19:04.146Z,5.48
2022-12-03T23:21:34.347Z,5.55
2022-12-03T23:24:04.409Z,5.46
2022-12-03T23:26:37.731Z,5.47
2022-12-03T23:29:08.702Z,5.46
2022-12-03T23:31:37.443Z,5.57
2022-12-03T23:34:06.478Z,5.57
2022-12-03T23:36:35.388Z,5.56
2022-12-03T23:39:04.397Z,5.58
2022-12-03T23:41:32.931Z,5.52
2022-12-03T23:44:02.816Z,5.53
2022-12-03T23:46:31.348Z,5.52
2022-12-03T23:49:00.691Z,5.57
2022-12-03T23:51:28.970Z,5.57
2022-12-03T23:53:58.176Z,5.66
2022-12-03T23:56:29.283Z,5.66
2022-12-03T23:58:58.457Z,5.72
